createdAt,value
2023-02-06T00:00:35.495Z,97872.53
2023-02-06T00:03:02.471Z,97854.19
2023-02-06T00:05:29.145Z,97874.34
2023-02-06T00:07:55.833Z,97863.84
2023-02-06T00:10:22.806Z,97885.31
2023-02-06T00:12:49.587Z,97877.53
2023-02-06T00:15:16.250Z,97881.41
2023-02-06T00:17:43.122Z,97877.34
2023-02-06T00:20:11.014Z,97880.28
2023-02-06T00:22:37.819Z,97883.53
2023-02-06T00:25:05.158Z,97859.16
2023-02-06T00:27:32.017Z,97891.31
2023-02-06T00:29:58.727Z,97886.78
2023-02-06T00:32:25.453Z,97904.44
2023-02-06T00:34:51.992Z,97908.31
2023-02-06T00:37:18.623Z,97891.84
2023-02-06T00:39:45.159Z,97904.44
2023-02-06T00:42:11.721Z,97895.03
2023-02-06T00:44:38.224Z,97891.56
2023-02-06T00:47:04.804Z,97918.22
2023-02-06T00:49:31.345Z,97907.59
2023-02-06T00:51:57.858Z,97893.78
2023-02-06T00:54:24.547Z,97904.31
2023-02-06T00:56:51.059Z,97907.69
2023-02-06T00:59:17.724Z,97906.34
2023-02-06T01:01:44.433Z,97916.56
2023-02-06T01:04:11.014Z,97912.56
2023-02-06T01:06:37.517Z,97904.56
2023-02-06T01:09:04.715Z,97911.38
2023-02-06T01:11:31.107Z,97922.81
2023-02-06T01:13:58.041Z,97913.00
2023-02-06T01:16:25.344Z,97914.13
2023-02-06T01:18:51.935Z,97917.78
2023-02-06T01:21:21.397Z,97910.34
2023-02-06T01:23:49.671Z,97912.63
2023-02-06T01:26:18.251Z,97914.78
2023-02-06T01:28:47.150Z,97897.41
2023-02-06T01:31:17.311Z,97894.66
2023-02-06T01:33:45.474Z,97897.34
2023-02-06T01:36:13.344Z,97867.09
2023-02-06T01:38:40.947Z,97881.19
2023-02-06T01:41:08.574Z,97885.63
2023-02-06T01:43:38.685Z,97899.78
2023-02-06T01:46:06.115Z,97897.03
2023-02-06T01:48:40.695Z,97902.97
2023-02-06T01:51:15.211Z,97909.84
2023-02-06T01:53:44.671Z,97909.66
2023-02-06T01:56:13.236Z,97905.13
2023-02-06T01:58:44.523Z,97906.56
2023-02-06T02:01:11.578Z,97918.13
2023-02-06T02:03:40.438Z,97902.56
2023-02-06T02:06:12.220Z,97896.19
2023-02-06T02:08:45.047Z,97891.41
2023-02-06T02:11:19.221Z,97895.66
2023-02-06T02:13:46.255Z,97882.72
2023-02-06T02:16:19.581Z,97901.38
2023-02-06T02:19:00.297Z,97860.97
2023-02-06T02:21:50.202Z,97886.22
2023-02-06T02:24:51.028Z,97883.22
2023-02-06T02:27:44.932Z,97878.22
2023-02-06T02:30:43.786Z,97883.22
2023-02-06T02:33:31.761Z,97879.56
2023-02-06T02:36:10.204Z,97883.81
2023-02-06T02:38:41.715Z,97897.97
2023-02-06T02:41:49.179Z,97901.97
2023-02-06T02:44:27.491Z,97912.25
2023-02-06T02:46:56.813Z,97896.94
2023-02-06T02:49:29.789Z,97902.78
2023-02-06T02:51:58.505Z,97897.00
2023-02-06T02:54:25.122Z,97918.25
2023-02-06T02:56:53.215Z,97915.66
2023-02-06T02:59:28.959Z,97916.13
2023-02-06T03:02:05.355Z,97937.88
2023-02-06T03:04:40.960Z,97938.03
2023-02-06T03:07:16.585Z,97942.25
2023-02-06T03:10:13.783Z,97943.97
2023-02-06T03:12:54.093Z,97939.72
2023-02-06T03:15:41.710Z,97939.28
2023-02-06T03:18:24.006Z,97940.19
2023-02-06T03:20:51.491Z,97927.63
2023-02-06T03:23:25.128Z,97952.50
2023-02-06T03:25:55.803Z,97937.00
2023-02-06T03:28:26.637Z,97948.63
2023-02-06T03:30:57.744Z,97939.28
2023-02-06T03:33:28.581Z,97932.53
2023-02-06T03:35:58.027Z,97950.03
2023-02-06T03:38:25.348Z,97936.06
2023-02-06T03:40:53.977Z,97936.06
2023-02-06T03:43:25.021Z,97935.28
2023-02-06T03:46:03.299Z,97926.69
2023-02-06T03:48:37.217Z,97940.91
2023-02-06T03:51:10.249Z,97931.97
2023-02-06T03:53:38.673Z,97938.34
2023-02-06T03:56:10.209Z,97930.38
2023-02-06T03:58:36.968Z,97927.19
2023-02-06T04:01:06.021Z,97937.25
2023-02-06T04:03:33.105Z,97918.19
2023-02-06T04:05:59.998Z,97930.75
2023-02-06T04:08:26.501Z,97942.94
2023-02-06T04:10:53.071Z,97938.25
2023-02-06T04:13:19.626Z,97953.59
2023-02-06T04:15:46.142Z,97942.75
2023-02-06T04:18:12.677Z,97938.75
2023-02-06T04:20:41.042Z,97943.88
2023-02-06T04:23:08.805Z,97940.44
2023-02-06T04:25:35.900Z,97941.38
2023-02-06T04:28:02.769Z,97958.28
2023-02-06T04:30:29.482Z,97960.78
2023-02-06T04:32:56.070Z,97938.28
2023-02-06T04:35:22.845Z,97952.81
2023-02-06T04:37:49.458Z,97959.31
2023-02-06T04:40:16.188Z,97958.50
2023-02-06T04:42:42.773Z,97964.69
2023-02-06T04:45:10.057Z,97950.75
2023-02-06T04:47:36.722Z,97971.06
2023-02-06T04:50:04.711Z,97971.56
2023-02-06T04:52:31.280Z,97989.22
2023-02-06T04:54:57.922Z,97970.06
2023-02-06T04:57:24.577Z,97980.66
2023-02-06T04:59:51.197Z,97992.22
2023-02-06T05:02:17.820Z,97993.25
2023-02-06T05:04:44.443Z,97989.59
2023-02-06T05:07:11.005Z,97992.44
2023-02-06T05:09:37.598Z,98002.38
2023-02-06T05:12:05.107Z,98006.84
2023-02-06T05:14:31.762Z,98000.31
2023-02-06T05:16:58.437Z,98005.13
2023-02-06T05:19:25.224Z,97998.75
2023-02-06T05:21:51.774Z,98017.94
2023-02-06T05:24:18.777Z,98008.31
2023-02-06T05:26:46.555Z,98007.66
2023-02-06T05:29:13.311Z,97991.19
2023-02-06T05:31:39.998Z,97998.50
2023-02-06T05:34:06.656Z,98003.19
2023-02-06T05:36:33.194Z,98007.53
2023-02-06T05:38:59.709Z,97999.88
2023-02-06T05:41:26.286Z,97993.50
2023-02-06T05:43:52.846Z,98005.59
2023-02-06T05:46:19.555Z,98005.38
2023-02-06T05:48:46.136Z,98012.19
2023-02-06T05:51:12.725Z,98026.81
2023-02-06T05:53:39.310Z,98031.53
2023-02-06T05:56:06.106Z,98024.53
2023-02-06T05:58:32.918Z,98039.75
2023-02-06T06:00:59.523Z,98010.16
2023-02-06T06:03:26.337Z,98030.25
2023-02-06T06:05:54.028Z,98022.84
2023-02-06T06:08:21.032Z,98032.78
2023-02-06T06:10:50.325Z,98050.72
2023-02-06T06:13:17.073Z,98025.88
2023-02-06T06:15:43.821Z,98020.59
2023-02-06T06:18:11.167Z,98030.44
2023-02-06T06:20:37.784Z,98028.03
2023-02-06T06:23:04.327Z,98020.75
2023-02-06T06:25:30.842Z,98026.00
2023-02-06T06:27:57.360Z,98034.66
2023-02-06T06:30:24.132Z,98022.22
2023-02-06T06:32:50.708Z,98009.25
2023-02-06T06:35:17.272Z,97994.38
2023-02-06T06:37:43.820Z,97988.94
2023-02-06T06:40:10.955Z,97973.47
2023-02-06T06:42:37.376Z,97991.88
2023-02-06T06:45:04.876Z,97994.44
2023-02-06T06:47:31.515Z,97999.59
2023-02-06T06:49:58.106Z,97996.50
2023-02-06T06:52:25.855Z,98001.63
2023-02-06T06:54:53.259Z,98000.22
2023-02-06T06:57:20.751Z,98003.91
2023-02-06T06:59:47.486Z,98011.34
2023-02-06T07:02:14.115Z,98017.78
2023-02-06T07:04:40.663Z,98010.09
2023-02-06T07:07:07.620Z,98015.66
2023-02-06T07:09:34.212Z,98000.00
2023-02-06T07:12:00.951Z,98013.19
2023-02-06T07:14:27.485Z,98021.34
2023-02-06T07:16:54.100Z,98028.50
2023-02-06T07:19:21.475Z,98020.66
2023-02-06T07:21:48.077Z,98021.66
2023-02-06T07:24:14.723Z,98036.50
2023-02-06T07:26:41.728Z,98027.66
2023-02-06T07:29:08.329Z,98035.63
2023-02-06T07:31:35.325Z,98037.75
2023-02-06T07:34:02.415Z,98042.56
2023-02-06T07:36:29.119Z,98041.88
2023-02-06T07:38:55.809Z,98026.81
2023-02-06T07:41:22.372Z,98023.94
2023-02-06T07:43:48.940Z,98048.63
2023-02-06T07:46:15.589Z,98038.34
2023-02-06T07:48:42.582Z,98035.75
2023-02-06T07:51:09.710Z,98058.31
2023-02-06T07:53:37.339Z,98053.09
2023-02-06T07:56:12.149Z,98051.06
2023-02-06T07:58:38.841Z,98046.78
2023-02-06T08:01:06.648Z,98040.53
2023-02-06T08:03:33.928Z,98035.63
2023-02-06T08:06:00.469Z,98035.28
2023-02-06T08:08:27.097Z,98044.56
2023-02-06T08:10:53.602Z,98055.81
2023-02-06T08:13:20.159Z,98044.84
2023-02-06T08:15:46.661Z,98050.75
2023-02-06T08:18:13.241Z,98029.38
2023-02-06T08:20:39.778Z,98055.81
2023-02-06T08:23:08.112Z,98036.88
2023-02-06T08:25:35.181Z,98026.81
2023-02-06T08:28:01.946Z,98025.50
2023-02-06T08:30:28.833Z,98045.25
2023-02-06T08:32:55.788Z,98018.81
2023-02-06T08:35:22.375Z,98040.53
2023-02-06T08:37:48.939Z,98040.47
2023-02-06T08:40:15.548Z,98035.69
2023-02-06T08:42:42.138Z,98032.69
2023-02-06T08:45:09.319Z,98041.53
2023-02-06T08:47:35.974Z,98015.16
2023-02-06T08:50:03.721Z,98011.13
2023-02-06T08:52:30.505Z,98019.69
2023-02-06T08:54:57.062Z,98030.38
2023-02-06T08:57:23.760Z,98091.22
2023-02-06T08:59:50.786Z,98082.84
2023-02-06T09:02:17.461Z,98149.53
2023-02-06T09:04:44.090Z,98136.47
2023-02-06T09:07:10.768Z,98138.44
2023-02-06T09:09:37.397Z,98133.56
2023-02-06T09:12:04.425Z,98131.81
2023-02-06T09:14:31.656Z,98129.41
2023-02-06T09:16:58.489Z,98149.13
2023-02-06T09:19:26.152Z,98133.09
2023-02-06T09:21:53.242Z,98143.22
2023-02-06T09:24:20.150Z,98138.69
2023-02-06T09:26:59.105Z,98133.38
2023-02-06T09:29:29.098Z,98126.38
2023-02-06T09:31:57.477Z,98137.03
2023-02-06T09:34:26.005Z,98134.03
2023-02-06T09:36:54.667Z,98133.88
2023-02-06T09:39:21.569Z,98150.28
2023-02-06T09:41:52.367Z,98127.34
2023-02-06T09:44:34.088Z,98124.50
2023-02-06T09:47:22.926Z,98125.88
2023-02-06T09:49:53.394Z,98120.34
2023-02-06T09:52:41.387Z,98114.03
2023-02-06T09:55:08.003Z,98145.09
2023-02-06T09:58:00.340Z,98146.31
2023-02-06T10:00:39.945Z,98110.31
2023-02-06T10:03:06.470Z,98095.03
2023-02-06T10:05:55.051Z,98087.75
2023-02-06T10:08:31.666Z,98099.19
2023-02-06T10:11:04.298Z,98107.06
2023-02-06T10:13:39.167Z,98105.66
2023-02-06T10:16:16.554Z,98117.06
2023-02-06T10:18:50.508Z,98102.84
2023-02-06T10:21:35.210Z,98099.84
2023-02-06T10:24:19.201Z,98108.69
2023-02-06T10:26:48.066Z,98093.16
2023-02-06T10:29:26.902Z,98079.66
2023-02-06T10:32:11.510Z,98067.28
2023-02-06T10:34:59.475Z,98091.63
2023-02-06T10:38:24.162Z,98095.94
2023-02-06T10:41:03.163Z,98063.31
2023-02-06T10:43:58.739Z,98081.47
2023-02-06T10:46:40.344Z,98061.91
2023-02-06T10:49:21.976Z,98076.81
2023-02-06T10:51:54.002Z,98082.59
2023-02-06T10:54:31.488Z,98069.00
2023-02-06T10:56:59.839Z,98073.19
2023-02-06T10:59:39.010Z,98069.16
2023-02-06T11:02:30.998Z,98071.56
2023-02-06T11:05:14.291Z,98061.34
2023-02-06T11:07:51.535Z,98046.72
2023-02-06T11:10:24.186Z,98042.97
2023-02-06T11:13:03.833Z,98050.28
2023-02-06T11:16:14.229Z,98075.03
2023-02-06T11:18:45.011Z,98058.44
2023-02-06T11:21:14.186Z,98062.41
2023-02-06T11:23:42.201Z,98065.59
2023-02-06T11:26:14.250Z,98052.84
2023-02-06T11:28:52.395Z,98070.66
2023-02-06T11:31:21.420Z,98043.75
2023-02-06T11:33:54.415Z,98031.09
2023-02-06T11:36:32.578Z,98061.28
2023-02-06T11:39:01.991Z,98048.41
2023-02-06T11:41:29.849Z,98041.84
2023-02-06T11:44:02.618Z,98024.88
2023-02-06T11:46:35.372Z,98048.31
2023-02-06T11:49:06.567Z,98037.19
2023-02-06T11:51:53.963Z,98040.22
2023-02-06T11:54:35.278Z,98034.28
2023-02-06T11:57:03.921Z,98037.81
2023-02-06T11:59:34.664Z,98038.28
2023-02-06T12:02:07.389Z,98034.69
2023-02-06T12:04:38.389Z,98045.44
2023-02-06T12:07:16.540Z,98033.13
2023-02-06T12:09:43.495Z,98050.97
2023-02-06T12:12:23.871Z,98014.06
2023-02-06T12:15:39.761Z,98039.50
2023-02-06T12:18:09.430Z,98022.03
2023-02-06T12:20:47.301Z,98026.78
2023-02-06T12:23:33.762Z,98023.31
2023-02-06T12:26:05.066Z,98009.41
2023-02-06T12:28:41.899Z,98046.25
2023-02-06T12:31:47.639Z,98037.81
2023-02-06T12:34:19.788Z,98033.41
2023-02-06T12:36:58.810Z,98035.44
2023-02-06T12:39:30.874Z,98030.78
2023-02-06T12:42:06.254Z,98027.75
2023-02-06T12:44:55.178Z,98021.28
2023-02-06T12:48:02.024Z,98035.84
2023-02-06T12:50:33.914Z,98021.16
2023-02-06T12:53:27.012Z,98031.34
2023-02-06T12:56:20.512Z,98046.84
2023-02-06T12:58:57.926Z,98040.84
2023-02-06T13:02:02.363Z,98052.69
2023-02-06T13:04:33.158Z,98047.00
2023-02-06T13:07:16.399Z,98029.56
2023-02-06T13:10:06.005Z,98050.09
2023-02-06T13:12:33.888Z,98039.13
2023-02-06T13:15:20.282Z,98047.66
2023-02-06T13:17:47.014Z,98068.47
2023-02-06T13:20:16.132Z,98053.47
2023-02-06T13:22:50.996Z,98052.00
2023-02-06T13:25:27.850Z,98043.34
2023-02-06T13:28:20.415Z,98051.50
2023-02-06T13:30:50.648Z,98039.84
2023-02-06T13:33:22.528Z,98024.56
2023-02-06T13:36:15.690Z,98040.69
2023-02-06T13:38:42.712Z,98041.22
2023-02-06T13:41:15.082Z,98034.22
2023-02-06T13:43:48.244Z,98055.44
2023-02-06T13:46:19.847Z,98057.78
2023-02-06T13:49:01.322Z,98083.66
2023-02-06T13:51:50.932Z,98045.66
2023-02-06T13:54:29.706Z,98039.38
2023-02-06T13:57:17.928Z,98041.19
2023-02-06T14:00:10.771Z,98052.63
2023-02-06T14:03:04.899Z,98036.66
2023-02-06T14:06:03.703Z,98049.38
2023-02-06T14:09:08.877Z,98053.34
2023-02-06T14:12:23.491Z,98063.47
2023-02-06T14:15:13.087Z,98064.09
2023-02-06T14:17:56.774Z,98058.63
2023-02-06T14:20:32.386Z,98070.09
2023-02-06T14:23:16.432Z,98060.03
2023-02-06T14:26:05.171Z,98074.44
2023-02-06T14:28:49.660Z,98081.94
2023-02-06T14:31:38.513Z,98048.63
2023-02-06T14:34:23.309Z,98065.47
2023-02-06T14:36:49.788Z,98076.88
2023-02-06T14:39:41.355Z,98072.50
2023-02-06T14:42:37.431Z,98083.34
2023-02-06T14:45:23.043Z,98089.59
2023-02-06T14:47:51.176Z,98097.03
2023-02-06T14:50:24.272Z,98098.06
2023-02-06T14:53:19.894Z,98097.28
2023-02-06T14:55:49.455Z,98090.16
2023-02-06T14:58:30.151Z,98093.00
2023-02-06T15:01:19.954Z,98103.13
2023-02-06T15:03:49.080Z,98103.94
2023-02-06T15:06:30.038Z,98098.66
2023-02-06T15:08:56.670Z,98095.84
2023-02-06T15:11:26.128Z,98103.13
2023-02-06T15:13:55.954Z,98098.34
2023-02-06T15:16:22.644Z,98122.38
2023-02-06T15:18:49.225Z,98074.69
2023-02-06T15:21:18.872Z,98112.44
2023-02-06T15:23:55.531Z,98131.53
2023-02-06T15:26:37.309Z,98127.84
2023-02-06T15:29:06.544Z,98124.34
2023-02-06T15:31:34.193Z,98130.16
2023-02-06T15:34:01.369Z,98124.22
2023-02-06T15:36:37.029Z,98135.94
2023-02-06T15:39:07.818Z,98148.72
2023-02-06T15:41:35.244Z,98128.97
2023-02-06T15:44:07.001Z,98148.00
2023-02-06T15:46:33.865Z,98152.72
2023-02-06T15:49:00.571Z,98139.16
2023-02-06T15:51:40.698Z,98143.63
2023-02-06T15:54:18.428Z,98149.44
2023-02-06T15:56:50.687Z,98170.53
2023-02-06T15:59:21.524Z,98157.38
2023-02-06T16:01:49.308Z,98175.59
2023-02-06T16:04:24.024Z,98175.06
2023-02-06T16:07:26.104Z,98171.94
2023-02-06T16:09:58.448Z,98170.59
2023-02-06T16:12:25.567Z,98168.91
2023-02-06T16:14:57.148Z,98156.91
2023-02-06T16:17:34.615Z,98197.97
2023-02-06T16:20:04.934Z,98195.59
2023-02-06T16:22:37.811Z,98205.81
2023-02-06T16:25:29.569Z,98212.38
2023-02-06T16:27:56.375Z,98213.38
2023-02-06T16:30:25.923Z,98226.78
2023-02-06T16:32:55.271Z,98230.72
2023-02-06T16:35:23.346Z,98225.97
2023-02-06T16:37:51.380Z,98232.28
2023-02-06T16:40:18.522Z,98216.50
2023-02-06T16:42:47.531Z,98255.84
2023-02-06T16:45:26.424Z,98237.09
2023-02-06T16:47:54.463Z,98237.81
2023-02-06T16:50:21.784Z,98248.91
2023-02-06T16:52:54.064Z,98246.97
2023-02-06T16:55:26.434Z,98254.88
2023-02-06T16:57:56.643Z,98249.38
2023-02-06T17:00:26.258Z,98257.53
2023-02-06T17:02:53.859Z,98259.03
2023-02-06T17:05:23.739Z,98256.72
2023-02-06T17:07:51.217Z,98265.16
2023-02-06T17:10:24.932Z,98261.97
2023-02-06T17:12:51.611Z,98263.91
2023-02-06T17:15:19.131Z,98268.91
2023-02-06T17:17:46.479Z,98266.41
2023-02-06T17:20:35.303Z,98276.28
2023-02-06T17:23:02.151Z,98281.34
2023-02-06T17:25:28.825Z,98288.25
2023-02-06T17:27:55.579Z,98293.84
2023-02-06T17:30:24.454Z,98282.78
2023-02-06T17:32:51.248Z,98281.53
2023-02-06T17:35:18.454Z,98306.34
2023-02-06T17:37:45.218Z,98304.88
2023-02-06T17:40:18.108Z,98311.34
2023-02-06T17:42:44.676Z,98317.38
2023-02-06T17:45:11.306Z,98315.00
2023-02-06T17:47:37.828Z,98331.53
2023-02-06T17:50:04.627Z,98310.25
2023-02-06T17:52:31.176Z,98314.91
2023-02-06T17:54:57.764Z,98312.63
2023-02-06T17:57:24.312Z,98329.94
2023-02-06T17:59:53.898Z,98321.22
2023-02-06T18:02:20.445Z,98345.56
2023-02-06T18:04:50.560Z,98327.34
2023-02-06T18:07:17.098Z,98321.72
2023-02-06T18:09:43.737Z,98333.66
2023-02-06T18:12:10.632Z,98329.50
2023-02-06T18:14:37.237Z,98328.81
2023-02-06T18:17:03.853Z,98349.44
2023-02-06T18:19:30.732Z,98322.47
2023-02-06T18:21:57.419Z,98329.31
2023-02-06T18:24:23.969Z,98345.84
2023-02-06T18:26:50.485Z,98336.09
2023-02-06T18:29:17.032Z,98352.72
2023-02-06T18:31:43.627Z,98334.16
2023-02-06T18:34:10.892Z,98352.03
2023-02-06T18:36:37.964Z,98353.88
2023-02-06T18:39:06.165Z,98342.31
2023-02-06T18:41:51.488Z,98348.38
2023-02-06T18:44:18.111Z,98341.06
2023-02-06T18:46:44.687Z,98342.63
2023-02-06T18:49:11.452Z,98352.16
2023-02-06T18:51:38.161Z,98354.53
2023-02-06T18:54:05.417Z,98341.78
2023-02-06T18:56:32.456Z,98373.09
2023-02-06T18:58:59.058Z,98367.13
2023-02-06T19:01:26.142Z,98370.84
2023-02-06T19:03:53.466Z,98371.53
2023-02-06T19:06:28.961Z,98377.84
2023-02-06T19:08:57.030Z,98353.91
2023-02-06T19:11:23.649Z,98378.88
2023-02-06T19:13:50.322Z,98369.25
2023-02-06T19:16:18.956Z,98398.47
2023-02-06T19:18:48.288Z,98389.28
2023-02-06T19:21:22.496Z,98400.88
2023-02-06T19:23:55.221Z,98378.94
2023-02-06T19:26:22.361Z,98395.38
2023-02-06T19:28:49.160Z,98391.00
2023-02-06T19:31:21.109Z,98397.84
2023-02-06T19:33:47.665Z,98401.78
2023-02-06T19:36:15.640Z,98402.44
2023-02-06T19:38:43.525Z,98395.50
2023-02-06T19:41:16.350Z,98395.13
2023-02-06T19:43:42.964Z,98388.16
2023-02-06T19:46:13.649Z,98403.16
2023-02-06T19:48:45.594Z,98410.06
2023-02-06T19:51:24.830Z,98401.81
2023-02-06T19:53:53.784Z,98391.94
2023-02-06T19:56:21.670Z,98416.59
2023-02-06T19:58:52.751Z,98413.72
2023-02-06T20:01:19.338Z,98406.41
2023-02-06T20:03:46.629Z,98420.63
2023-02-06T20:06:14.717Z,98421.75
2023-02-06T20:08:43.127Z,98424.94
2023-02-06T20:11:12.963Z,98420.25
2023-02-06T20:13:40.264Z,98420.94
2023-02-06T20:16:14.189Z,98429.97
2023-02-06T20:18:40.753Z,98428.03
2023-02-06T20:21:22.305Z,98430.44
2023-02-06T20:23:52.138Z,98438.22
2023-02-06T20:26:19.990Z,98431.81
2023-02-06T20:28:47.818Z,98434.88
2023-02-06T20:31:14.581Z,98431.94
2023-02-06T20:33:42.060Z,98432.03
2023-02-06T20:36:11.738Z,98441.78
2023-02-06T20:38:38.340Z,98443.06
2023-02-06T20:41:06.376Z,98428.41
2023-02-06T20:43:33.402Z,98424.94
2023-02-06T20:46:00.107Z,98432.16
2023-02-06T20:48:27.255Z,98428.88
2023-02-06T20:51:01.057Z,98429.06
2023-02-06T20:53:28.146Z,98425.75
2023-02-06T20:55:54.743Z,98416.56
2023-02-06T20:58:21.554Z,98429.78
2023-02-06T21:00:50.052Z,98431.72
2023-02-06T21:03:16.627Z,98435.16
2023-02-06T21:05:43.423Z,98437.34
2023-02-06T21:08:10.282Z,98441.34
2023-02-06T21:10:37.229Z,98445.38
2023-02-06T21:13:03.800Z,98442.94
2023-02-06T21:15:30.403Z,98439.97
2023-02-06T21:17:57.334Z,98451.06
2023-02-06T21:20:23.874Z,98445.13
2023-02-06T21:22:52.872Z,98458.88
2023-02-06T21:25:20.525Z,98461.50
2023-02-06T21:27:47.138Z,98457.72
2023-02-06T21:30:13.939Z,98455.19
2023-02-06T21:32:40.486Z,98456.59
2023-02-06T21:35:08.756Z,98428.19
2023-02-06T21:37:35.331Z,98453.16
2023-02-06T21:40:01.962Z,98468.28
2023-02-06T21:42:28.476Z,98470.47
2023-02-06T21:44:55.053Z,98476.75
2023-02-06T21:47:21.551Z,98466.44
2023-02-06T21:49:48.174Z,98470.22
2023-02-06T21:52:14.727Z,98479.97
2023-02-06T21:54:41.298Z,98465.53
2023-02-06T21:57:07.873Z,98469.09
2023-02-06T21:59:34.493Z,98461.97
2023-02-06T22:02:01.035Z,98476.31
2023-02-06T22:04:27.588Z,98481.69
2023-02-06T22:06:54.110Z,98472.97
2023-02-06T22:09:20.996Z,98460.25
2023-02-06T22:11:47.623Z,98461.19
2023-02-06T22:14:16.494Z,98475.63
2023-02-06T22:16:43.353Z,98476.31
2023-02-06T22:19:10.785Z,98471.03
2023-02-06T22:21:37.444Z,98471.38
2023-02-06T22:24:06.477Z,98484.22
2023-02-06T22:26:36.908Z,98486.41
2023-02-06T22:29:03.922Z,98460.03
2023-02-06T22:31:32.694Z,98492.81
2023-02-06T22:34:00.469Z,98486.75
2023-02-06T22:36:30.752Z,98496.13
2023-02-06T22:39:03.733Z,98492.13
2023-02-06T22:41:30.775Z,98491.19
2023-02-06T22:43:57.769Z,98489.72
2023-02-06T22:46:27.261Z,98486.88
2023-02-06T22:48:54.352Z,98495.69
2023-02-06T22:51:21.537Z,98491.78
2023-02-06T22:53:48.087Z,98497.41
2023-02-06T22:56:27.281Z,98494.91
2023-02-06T22:58:56.056Z,98498.78
2023-02-06T23:01:25.305Z,98492.91
2023-02-06T23:03:53.731Z,98497.88
2023-02-06T23:06:21.053Z,98501.75
2023-02-06T23:08:47.978Z,98488.44
2023-02-06T23:11:14.538Z,98480.22
2023-02-06T23:13:41.783Z,98485.81
2023-02-06T23:16:09.459Z,98479.41
2023-02-06T23:18:36.739Z,98502.91
2023-02-06T23:21:10.803Z,98498.44
2023-02-06T23:23:38.604Z,98491.78
2023-02-06T23:26:10.092Z,98495.53
2023-02-06T23:28:36.984Z,98496.59
2023-02-06T23:31:04.051Z,98501.28
2023-02-06T23:33:30.543Z,98499.09
2023-02-06T23:36:13.390Z,98496.25
2023-02-06T23:38:40.461Z,98496.91
2023-02-06T23:41:13.473Z,98494.41
2023-02-06T23:43:40.798Z,98504.72
2023-02-06T23:46:11.715Z,98514.34
2023-02-06T23:48:39.493Z,98515.03
2023-02-06T23:51:06.460Z,98501.94
2023-02-06T23:53:33.033Z,98515.50
2023-02-06T23:55:59.593Z,98514.53
2023-02-06T23:58:26.581Z,98517.78
